createdAt,value
2023-01-26T00:00:59.846Z,35.13
2023-01-26T00:03:27.769Z,39.88
2023-01-26T00:05:55.261Z,35.40
2023-01-26T00:08:22.698Z,29.67
2023-01-26T00:10:51.267Z,34.85
2023-01-26T00:13:19.803Z,32.45
2023-01-26T00:15:48.862Z,30.25
2023-01-26T00:18:16.398Z,25.65
2023-01-26T00:20:43.910Z,31.27
2023-01-26T00:23:11.393Z,31.65
2023-01-26T00:25:40.891Z,31.70
2023-01-26T00:28:08.339Z,29.92
2023-01-26T00:30:35.843Z,28.73
2023-01-26T00:33:04.780Z,29.75
2023-01-26T00:35:32.308Z,27.02
2023-01-26T00:38:00.008Z,29.58
2023-01-26T00:40:27.455Z,29.90
2023-01-26T00:42:55.365Z,32.08
2023-01-26T00:45:22.799Z,34.88
2023-01-26T00:48:00.420Z,32.55
2023-01-26T00:50:29.279Z,33.20
2023-01-26T00:52:56.704Z,33.80
2023-01-26T00:55:24.257Z,37.75
2023-01-26T00:57:51.731Z,35.05
2023-01-26T01:00:20.266Z,37.85
2023-01-26T01:02:47.722Z,39.08
2023-01-26T01:05:15.601Z,41.60
2023-01-26T01:07:45.347Z,44.33
2023-01-26T01:10:13.250Z,37.70
2023-01-26T01:12:41.059Z,39.08
2023-01-26T01:15:10.330Z,40.20
2023-01-26T01:17:38.535Z,39.97
2023-01-26T01:20:08.285Z,41.92
2023-01-26T01:22:36.851Z,35.75
2023-01-26T01:25:06.383Z,42.83
2023-01-26T01:27:33.924Z,43.28
2023-01-26T01:30:01.739Z,42.08
2023-01-26T01:32:29.291Z,41.33
2023-01-26T01:34:56.735Z,43.00
2023-01-26T01:37:24.221Z,39.22
2023-01-26T01:39:51.839Z,40.22
2023-01-26T01:42:21.122Z,46.17
2023-01-26T01:45:26.980Z,51.50
2023-01-26T01:47:55.550Z,46.53
2023-01-26T01:50:23.247Z,42.58
2023-01-26T01:52:50.838Z,46.85
2023-01-26T01:55:18.566Z,40.65
2023-01-26T01:57:51.669Z,43.75
2023-01-26T02:00:20.866Z,52.13
2023-01-26T02:03:10.977Z,40.78
2023-01-26T02:05:43.044Z,43.08
2023-01-26T02:08:11.055Z,48.10
2023-01-26T02:10:39.011Z,44.00
2023-01-26T02:13:08.452Z,41.63
2023-01-26T02:15:36.055Z,48.38
2023-01-26T02:18:04.969Z,40.78
2023-01-26T02:20:38.336Z,44.15
2023-01-26T02:23:10.560Z,45.70
2023-01-26T02:25:41.559Z,46.17
2023-01-26T02:28:10.339Z,64.90
2023-01-26T02:30:37.939Z,55.15
2023-01-26T02:33:05.429Z,58.95
2023-01-26T02:35:32.923Z,58.88
2023-01-26T02:38:00.424Z,53.88
2023-01-26T02:40:33.486Z,65.55
2023-01-26T02:43:00.121Z,65.68
2023-01-26T02:45:29.148Z,62.50
2023-01-26T02:47:57.892Z,58.72
2023-01-26T02:50:24.456Z,64.90
2023-01-26T02:52:51.938Z,53.17
2023-01-26T02:55:26.332Z,66.63
2023-01-26T02:57:56.008Z,60.30
2023-01-26T03:00:25.140Z,61.30
2023-01-26T03:02:55.828Z,62.58
2023-01-26T03:05:23.391Z,64.10
2023-01-26T03:07:51.429Z,57.47
2023-01-26T03:10:19.670Z,60.75
2023-01-26T03:12:47.938Z,60.25
2023-01-26T03:15:33.135Z,56.38
2023-01-26T03:18:32.243Z,51.35
2023-01-26T03:21:18.087Z,60.47
2023-01-26T03:24:03.609Z,65.75
2023-01-26T03:26:48.631Z,54.28
2023-01-26T03:29:16.205Z,55.17
2023-01-26T03:31:43.839Z,60.63
2023-01-26T03:34:12.671Z,55.28
2023-01-26T03:36:40.168Z,53.47
2023-01-26T03:39:07.810Z,54.97
2023-01-26T03:41:52.833Z,46.33
2023-01-26T03:44:38.133Z,49.13
2023-01-26T03:47:24.026Z,49.75
2023-01-26T03:50:11.007Z,50.92
2023-01-26T03:52:56.675Z,54.33
2023-01-26T03:55:41.998Z,48.25
2023-01-26T03:58:09.652Z,50.08
2023-01-26T04:00:37.161Z,46.00
2023-01-26T04:03:22.240Z,47.65
2023-01-26T04:06:15.625Z,44.92
2023-01-26T04:08:44.228Z,41.92
2023-01-26T04:11:11.742Z,42.70
2023-01-26T04:13:56.748Z,45.67
2023-01-26T04:16:42.056Z,50.72
2023-01-26T04:19:27.546Z,47.22
2023-01-26T04:21:56.354Z,38.42
2023-01-26T04:24:24.652Z,37.60
2023-01-26T04:26:52.159Z,45.85
2023-01-26T04:29:19.637Z,39.72
2023-01-26T04:31:47.190Z,42.63
2023-01-26T04:34:16.100Z,40.95
2023-01-26T04:36:44.007Z,40.67
2023-01-26T04:39:12.837Z,41.60
2023-01-26T04:41:42.328Z,38.17
2023-01-26T04:44:10.022Z,38.78
2023-01-26T04:46:37.574Z,39.90
2023-01-26T04:49:05.097Z,34.13
2023-01-26T04:51:32.571Z,38.08
2023-01-26T04:54:00.043Z,40.30
2023-01-26T04:56:30.918Z,42.20
2023-01-26T04:59:00.630Z,33.37
2023-01-26T05:01:28.688Z,33.17
2023-01-26T05:03:56.269Z,32.70
2023-01-26T05:06:23.811Z,31.50
2023-01-26T05:08:51.223Z,33.13
2023-01-26T05:11:18.719Z,32.72
2023-01-26T05:13:47.796Z,32.85
2023-01-26T05:16:15.518Z,34.55
2023-01-26T05:18:43.294Z,38.75
2023-01-26T05:21:11.868Z,44.40
2023-01-26T05:23:48.400Z,35.15
2023-01-26T05:26:15.895Z,41.47
2023-01-26T05:28:43.369Z,38.55
2023-01-26T05:31:12.292Z,44.50
2023-01-26T05:33:39.872Z,33.00
2023-01-26T05:36:09.024Z,34.92
2023-01-26T05:38:36.554Z,39.40
2023-01-26T05:41:04.035Z,39.28
2023-01-26T05:43:31.644Z,38.53
2023-01-26T05:45:59.340Z,38.05
2023-01-26T05:48:28.173Z,41.53
2023-01-26T05:50:56.853Z,39.33
2023-01-26T05:53:24.380Z,36.97
2023-01-26T05:55:51.867Z,38.92
2023-01-26T05:58:19.469Z,41.83
2023-01-26T06:00:46.967Z,37.72
2023-01-26T06:03:14.901Z,33.15
2023-01-26T06:05:43.657Z,37.42
2023-01-26T06:08:11.147Z,42.83
2023-01-26T06:10:38.592Z,42.85
2023-01-26T06:13:06.054Z,37.42
2023-01-26T06:15:33.471Z,39.83
2023-01-26T06:18:01.906Z,43.05
2023-01-26T06:20:29.384Z,41.03
2023-01-26T06:23:02.521Z,39.45
2023-01-26T06:25:30.064Z,41.35
2023-01-26T06:28:00.413Z,41.15
2023-01-26T06:30:28.143Z,38.30
2023-01-26T06:32:56.778Z,40.08
2023-01-26T06:35:26.440Z,38.47
2023-01-26T06:37:54.106Z,38.75
2023-01-26T06:40:23.141Z,42.47
2023-01-26T06:42:51.045Z,34.92
2023-01-26T06:45:20.598Z,38.08
2023-01-26T06:47:48.155Z,40.85
2023-01-26T06:50:16.965Z,39.03
2023-01-26T06:52:47.472Z,41.08
2023-01-26T06:55:20.303Z,34.88
2023-01-26T06:57:49.120Z,35.92
2023-01-26T07:00:17.349Z,43.28
2023-01-26T07:02:44.974Z,39.08
2023-01-26T07:05:12.869Z,39.22
2023-01-26T07:07:40.454Z,39.97
2023-01-26T07:10:08.892Z,30.73
2023-01-26T07:12:40.492Z,36.20
2023-01-26T07:15:10.961Z,31.85
2023-01-26T07:17:38.562Z,32.30
2023-01-26T07:20:07.205Z,37.22
2023-01-26T07:22:34.672Z,41.00
2023-01-26T07:25:02.139Z,35.97
2023-01-26T07:27:29.605Z,40.80
2023-01-26T07:29:57.153Z,43.78
2023-01-26T07:32:25.960Z,48.17
2023-01-26T07:34:53.479Z,38.45
2023-01-26T07:37:20.983Z,37.75
2023-01-26T07:39:49.087Z,40.35
2023-01-26T07:42:16.549Z,34.85
2023-01-26T07:44:44.052Z,33.75
2023-01-26T07:47:11.514Z,34.25
2023-01-26T07:49:40.350Z,31.67
2023-01-26T07:52:08.590Z,30.05
2023-01-26T07:54:36.338Z,34.92
2023-01-26T07:57:05.755Z,31.92
2023-01-26T07:59:33.367Z,41.10
2023-01-26T08:02:01.047Z,38.45
2023-01-26T08:04:28.602Z,43.92
2023-01-26T08:06:57.364Z,39.00
2023-01-26T08:09:25.944Z,34.83
2023-01-26T08:11:53.405Z,33.35
2023-01-26T08:14:20.891Z,31.15
2023-01-26T08:16:48.383Z,28.90
2023-01-26T08:19:16.103Z,29.15
2023-01-26T08:21:43.540Z,30.15
2023-01-26T08:24:13.671Z,29.92
2023-01-26T08:26:41.158Z,29.92
2023-01-26T08:29:08.662Z,23.92
2023-01-26T08:31:36.128Z,19.77
2023-01-26T08:34:04.175Z,23.95
2023-01-26T08:36:31.644Z,23.88
2023-01-26T08:38:59.090Z,24.73
2023-01-26T08:41:27.912Z,27.35
2023-01-26T08:43:59.190Z,26.80
2023-01-26T08:46:27.124Z,28.30
2023-01-26T08:48:54.549Z,27.80
2023-01-26T08:51:22.042Z,23.98
2023-01-26T08:53:49.532Z,26.52
2023-01-26T08:56:17.030Z,32.15
2023-01-26T08:58:46.320Z,27.58
2023-01-26T09:01:15.432Z,26.90
2023-01-26T09:03:43.324Z,29.15
2023-01-26T09:06:13.467Z,28.85
2023-01-26T09:08:41.079Z,27.60
2023-01-26T09:11:09.116Z,29.52
2023-01-26T09:13:37.282Z,29.88
2023-01-26T09:16:07.480Z,30.02
2023-01-26T09:18:35.485Z,27.58
2023-01-26T09:21:06.425Z,25.42
2023-01-26T09:23:34.814Z,27.92
2023-01-26T09:26:02.821Z,25.52
2023-01-26T09:28:30.473Z,21.15
2023-01-26T09:30:58.087Z,23.60
2023-01-26T09:33:26.962Z,26.88
2023-01-26T09:35:54.400Z,23.25
2023-01-26T09:38:21.903Z,21.88
2023-01-26T09:40:54.927Z,24.02
2023-01-26T09:43:26.659Z,25.13
2023-01-26T09:48:32.767Z,26.20
2023-01-26T09:51:05.103Z,23.83
2023-01-26T09:53:42.199Z,26.88
2023-01-26T09:56:16.211Z,32.72
2023-01-26T09:58:46.568Z,30.35
2023-01-26T10:01:18.517Z,30.63
2023-01-26T10:03:49.396Z,34.13
2023-01-26T10:06:21.522Z,20.63
2023-01-26T10:08:49.990Z,21.90
2023-01-26T10:11:20.738Z,20.98
2023-01-26T10:13:52.567Z,19.08
2023-01-26T10:16:24.365Z,22.20
2023-01-26T10:21:26.151Z,20.27
2023-01-26T10:23:53.746Z,16.65
2023-01-26T10:26:22.800Z,22.40
2023-01-26T10:28:51.548Z,27.05
2023-01-26T10:31:21.806Z,25.25
2023-01-26T10:33:52.785Z,24.90
2023-01-26T10:36:22.069Z,23.57
2023-01-26T10:38:50.427Z,19.83
2023-01-26T10:41:24.957Z,22.80
2023-01-26T10:43:54.837Z,20.75
2023-01-26T10:46:30.211Z,21.35
2023-01-26T10:48:59.413Z,22.67
2023-01-26T10:51:30.775Z,21.00
2023-01-26T10:54:22.242Z,22.25
2023-01-26T10:56:52.327Z,21.13
2023-01-26T10:59:32.370Z,21.92
2023-01-26T11:02:02.060Z,21.13
2023-01-26T11:04:30.544Z,20.05
2023-01-26T11:07:16.683Z,17.40
2023-01-26T11:09:44.129Z,18.20
2023-01-26T11:12:19.012Z,21.85
2023-01-26T11:15:01.410Z,18.02
2023-01-26T11:17:32.376Z,22.80
2023-01-26T11:20:08.605Z,20.05
2023-01-26T11:22:43.248Z,18.70
2023-01-26T11:25:17.616Z,21.98
2023-01-26T11:27:54.557Z,24.10
2023-01-26T11:30:36.626Z,21.35
2023-01-26T11:33:10.455Z,21.00
2023-01-26T11:35:46.711Z,25.17
2023-01-26T11:38:34.034Z,20.80
2023-01-26T11:41:12.057Z,22.58
2023-01-26T11:44:08.836Z,21.98
2023-01-26T11:46:49.117Z,22.27
2023-01-26T11:49:25.142Z,22.58
2023-01-26T11:52:01.461Z,20.48
2023-01-26T11:54:38.729Z,20.10
2023-01-26T11:57:14.637Z,21.10
2023-01-26T11:59:45.716Z,21.17
2023-01-26T12:02:27.586Z,19.48
2023-01-26T12:04:57.156Z,19.17
2023-01-26T12:07:28.696Z,22.50
2023-01-26T12:09:57.939Z,19.15
2023-01-26T12:12:31.994Z,21.88
2023-01-26T12:15:05.829Z,18.50
2023-01-26T12:17:41.738Z,20.55
2023-01-26T12:20:29.795Z,18.65
2023-01-26T12:23:04.625Z,18.92
2023-01-26T12:25:36.262Z,17.85
2023-01-26T12:28:12.983Z,16.73
2023-01-26T12:30:45.024Z,15.02
2023-01-26T12:33:12.592Z,14.45
2023-01-26T12:35:59.337Z,12.45
2023-01-26T12:38:36.954Z,17.52
2023-01-26T12:41:11.816Z,15.45
2023-01-26T12:43:56.326Z,13.80
2023-01-26T12:46:25.518Z,14.23
2023-01-26T12:48:55.112Z,14.60
2023-01-26T12:51:27.174Z,14.68
2023-01-26T12:53:59.008Z,15.07
2023-01-26T12:56:31.932Z,16.30
2023-01-26T12:59:01.579Z,16.13
2023-01-26T13:01:39.432Z,14.88
2023-01-26T13:04:10.281Z,13.02
2023-01-26T13:06:37.884Z,14.43
2023-01-26T13:09:20.711Z,17.45
2023-01-26T13:11:52.085Z,15.90
2023-01-26T13:14:32.125Z,17.40
2023-01-26T13:17:34.618Z,15.25
2023-01-26T13:20:16.748Z,20.08
2023-01-26T13:22:44.219Z,17.40
2023-01-26T13:25:17.068Z,17.15
2023-01-26T13:27:47.160Z,15.60
2023-01-26T13:30:33.927Z,16.27
2023-01-26T13:33:12.021Z,15.40
2023-01-26T13:35:41.237Z,18.48
2023-01-26T13:38:15.093Z,16.98
2023-01-26T13:40:44.244Z,18.15
2023-01-26T13:43:26.270Z,14.57
2023-01-26T13:46:01.219Z,14.57
2023-01-26T13:48:37.875Z,13.95
2023-01-26T13:51:08.488Z,16.48
2023-01-26T13:53:37.504Z,13.93
2023-01-26T13:56:06.885Z,13.05
2023-01-26T13:58:35.183Z,15.80
2023-01-26T14:01:04.164Z,13.85
2023-01-26T14:03:31.941Z,12.38
2023-01-26T14:06:02.790Z,13.95
2023-01-26T14:08:32.246Z,15.60
2023-01-26T14:11:00.697Z,16.00
2023-01-26T14:13:34.406Z,15.13
2023-01-26T14:16:05.603Z,16.20
2023-01-26T14:18:33.246Z,17.35
2023-01-26T14:21:04.040Z,18.48
2023-01-26T14:23:35.536Z,19.80
2023-01-26T14:26:04.708Z,22.30
2023-01-26T14:28:34.447Z,22.35
2023-01-26T14:31:07.468Z,24.77
2023-01-26T14:33:37.375Z,24.13
2023-01-26T14:36:06.292Z,21.80
2023-01-26T14:38:44.168Z,23.50
2023-01-26T14:41:16.576Z,20.67
2023-01-26T14:43:44.079Z,20.75
2023-01-26T14:46:16.295Z,24.27
2023-01-26T14:48:47.236Z,20.45
2023-01-26T14:51:19.484Z,17.20
2023-01-26T14:53:52.453Z,22.05
2023-01-26T14:56:21.122Z,27.67
2023-01-26T14:58:52.001Z,24.02
2023-01-26T15:01:23.487Z,25.33
2023-01-26T15:03:52.191Z,32.95
2023-01-26T15:06:23.439Z,28.48
2023-01-26T15:08:58.164Z,29.75
2023-01-26T15:11:49.169Z,29.50
2023-01-26T15:14:32.156Z,20.58
2023-01-26T15:16:59.891Z,31.10
2023-01-26T15:19:28.243Z,34.55
2023-01-26T15:21:55.855Z,36.85
2023-01-26T15:24:24.737Z,31.95
2023-01-26T15:26:52.267Z,41.60
2023-01-26T15:29:25.028Z,34.78
2023-01-26T15:31:54.029Z,33.53
2023-01-26T15:34:34.751Z,35.50
2023-01-26T15:37:02.776Z,36.55
2023-01-26T15:39:31.817Z,33.00
2023-01-26T15:42:02.882Z,34.83
2023-01-26T15:44:30.430Z,36.75
2023-01-26T15:46:59.279Z,36.22
2023-01-26T15:49:26.852Z,37.65
2023-01-26T15:51:54.317Z,36.63
2023-01-26T15:54:21.780Z,38.95
2023-01-26T15:56:50.616Z,43.58
2023-01-26T15:59:18.217Z,41.50
2023-01-26T16:01:45.883Z,42.53
2023-01-26T16:04:13.903Z,37.10
2023-01-26T16:06:42.685Z,38.33
2023-01-26T16:09:10.187Z,48.53
2023-01-26T16:11:42.431Z,47.60
2023-01-26T16:14:13.321Z,46.40
2023-01-26T16:16:40.846Z,33.83
2023-01-26T16:19:08.890Z,45.08
2023-01-26T16:21:40.741Z,56.03
2023-01-26T16:24:08.628Z,52.42
2023-01-26T16:26:36.163Z,53.15
2023-01-26T16:29:03.613Z,52.30
2023-01-26T16:31:34.618Z,49.03
2023-01-26T16:34:02.129Z,35.63
2023-01-26T16:36:29.822Z,50.42
2023-01-26T16:38:57.333Z,54.97
2023-01-26T16:41:26.693Z,49.63
2023-01-26T16:43:55.646Z,49.72
2023-01-26T16:46:23.514Z,47.97
2023-01-26T16:48:52.948Z,54.72
2023-01-26T16:51:22.176Z,51.95
2023-01-26T16:53:50.580Z,48.80
2023-01-26T16:56:19.173Z,52.63
2023-01-26T16:58:46.987Z,50.30
2023-01-26T17:01:20.777Z,50.03
2023-01-26T17:03:49.037Z,47.63
2023-01-26T17:06:19.404Z,54.47
2023-01-26T17:08:47.425Z,50.90
2023-01-26T17:11:19.241Z,47.97
2023-01-26T17:13:47.627Z,50.47
2023-01-26T17:16:18.272Z,48.97
2023-01-26T17:18:46.509Z,53.92
2023-01-26T17:21:14.456Z,51.42
2023-01-26T17:23:44.711Z,51.05
2023-01-26T17:26:13.142Z,46.67
2023-01-26T17:28:40.597Z,42.90
2023-01-26T17:31:11.335Z,41.05
2023-01-26T17:33:39.503Z,35.08
2023-01-26T17:36:07.932Z,50.90
2023-01-26T17:38:35.687Z,53.78
2023-01-26T17:41:05.427Z,56.55
2023-01-26T17:43:33.022Z,52.08
2023-01-26T17:46:05.901Z,48.70
2023-01-26T17:48:34.335Z,49.65
2023-01-26T17:51:01.800Z,59.78
2023-01-26T17:53:30.579Z,49.42
2023-01-26T17:55:58.099Z,47.13
2023-01-26T17:58:26.875Z,45.30
2023-01-26T18:00:54.406Z,51.45
2023-01-26T18:03:26.264Z,45.05
2023-01-26T18:05:54.754Z,45.00
2023-01-26T18:08:22.474Z,45.50
2023-01-26T18:10:50.356Z,45.65
2023-01-26T18:13:17.898Z,51.90
2023-01-26T18:15:46.667Z,49.28
2023-01-26T18:18:14.580Z,57.50
2023-01-26T18:20:42.082Z,54.95
2023-01-26T18:23:09.782Z,57.53
2023-01-26T18:25:37.266Z,55.83
2023-01-26T18:28:07.247Z,50.30
2023-01-26T18:30:35.695Z,53.33
2023-01-26T18:33:04.716Z,55.60
2023-01-26T18:35:34.134Z,54.97
2023-01-26T18:38:01.650Z,45.67
2023-01-26T18:40:29.120Z,49.58
2023-01-26T18:42:56.978Z,49.67
2023-01-26T18:45:24.630Z,46.38
2023-01-26T18:47:52.190Z,56.08
2023-01-26T18:50:20.982Z,51.13
2023-01-26T18:52:48.656Z,48.40
2023-01-26T18:55:16.564Z,52.47
2023-01-26T18:57:44.499Z,62.35
2023-01-26T19:00:13.888Z,56.67
2023-01-26T19:02:41.441Z,66.85
2023-01-26T19:05:09.893Z,62.53
2023-01-26T19:07:39.294Z,59.03
2023-01-26T19:10:08.368Z,68.50
2023-01-26T19:12:35.866Z,69.15
2023-01-26T19:15:03.669Z,76.63
2023-01-26T19:17:31.132Z,73.88
2023-01-26T19:19:58.586Z,84.72
2023-01-26T19:22:26.028Z,80.22
2023-01-26T19:24:54.840Z,76.55
2023-01-26T19:27:22.452Z,82.80
2023-01-26T19:29:51.577Z,87.35
2023-01-26T19:32:19.080Z,81.65
2023-01-26T19:34:46.542Z,89.40
2023-01-26T19:37:14.553Z,88.10
2023-01-26T19:39:42.040Z,89.43
2023-01-26T19:42:10.802Z,81.57
2023-01-26T19:44:38.268Z,90.18
2023-01-26T19:47:05.825Z,95.45
2023-01-26T19:49:33.375Z,94.55
2023-01-26T19:52:01.301Z,93.15
2023-01-26T19:54:29.926Z,87.15
2023-01-26T19:56:57.349Z,94.90
2023-01-26T19:59:27.362Z,95.03
2023-01-26T20:01:54.826Z,81.30
2023-01-26T20:04:22.289Z,97.75
2023-01-26T20:06:50.297Z,90.45
2023-01-26T20:09:17.714Z,96.13
2023-01-26T20:11:45.193Z,89.85
2023-01-26T20:14:12.640Z,91.70
2023-01-26T20:16:41.899Z,91.30
2023-01-26T20:19:09.381Z,85.75
2023-01-26T20:21:38.776Z,92.97
2023-01-26T20:24:07.251Z,83.32
2023-01-26T20:26:35.254Z,89.05
2023-01-26T20:29:03.276Z,94.53
2023-01-26T20:31:32.502Z,80.57
2023-01-26T20:34:02.109Z,83.35
2023-01-26T20:36:29.773Z,77.95
2023-01-26T20:38:57.409Z,84.10
2023-01-26T20:41:27.335Z,94.60
2023-01-26T20:44:01.260Z,95.28
2023-01-26T20:46:30.356Z,81.95
2023-01-26T20:48:58.245Z,88.90
2023-01-26T20:51:30.218Z,95.20
2023-01-26T20:53:58.382Z,85.70
2023-01-26T20:56:26.203Z,92.28
2023-01-26T20:58:54.444Z,84.65
2023-01-26T21:01:23.093Z,86.28
2023-01-26T21:03:50.693Z,75.55
2023-01-26T21:06:19.957Z,81.25
2023-01-26T21:08:49.707Z,82.38
2023-01-26T21:11:18.062Z,67.28
2023-01-26T21:13:46.832Z,80.45
2023-01-26T21:16:16.114Z,82.35
2023-01-26T21:18:43.915Z,81.82
2023-01-26T21:21:12.659Z,83.60
2023-01-26T21:23:40.654Z,79.63
2023-01-26T21:26:12.463Z,81.90
2023-01-26T21:31:09.687Z,91.35
2023-01-26T21:33:38.828Z,80.95
2023-01-26T21:36:07.860Z,89.88
2023-01-26T21:38:37.076Z,76.15
2023-01-26T21:41:26.137Z,88.97
2023-01-26T21:43:57.134Z,87.30
2023-01-26T21:46:24.753Z,69.40
2023-01-26T21:48:52.393Z,78.32
2023-01-26T21:51:37.883Z,79.25
2023-01-26T21:54:06.955Z,79.30
2023-01-26T21:56:34.910Z,84.35
2023-01-26T21:59:05.880Z,88.30
2023-01-26T22:01:35.511Z,82.47
2023-01-26T22:04:04.996Z,88.57
2023-01-26T22:06:32.446Z,92.70
2023-01-26T22:08:59.994Z,84.68
2023-01-26T22:11:28.126Z,98.95
2023-01-26T22:13:55.726Z,89.80
2023-01-26T22:16:24.667Z,88.70
2023-01-26T22:18:52.473Z,90.55
2023-01-26T22:21:20.044Z,99.72
2023-01-26T22:23:47.768Z,90.38
2023-01-26T22:26:17.083Z,103.50
2023-01-26T22:28:50.102Z,105.05
2023-01-26T22:31:19.822Z,111.53
2023-01-26T22:33:48.837Z,99.00
2023-01-26T22:36:16.992Z,110.55
2023-01-26T22:38:44.474Z,110.40
2023-01-26T22:41:15.100Z,110.03
2023-01-26T22:43:42.900Z,117.60
2023-01-26T22:46:12.458Z,121.03
2023-01-26T22:48:40.040Z,98.32
2023-01-26T22:51:09.955Z,105.47
2023-01-26T22:53:37.653Z,132.00
2023-01-26T22:56:06.155Z,135.48
2023-01-26T22:58:39.636Z,99.47
2023-01-26T23:01:14.003Z,109.35
2023-01-26T23:03:42.467Z,107.95
2023-01-26T23:06:15.388Z,112.65
2023-01-26T23:08:42.997Z,97.93
2023-01-26T23:11:13.919Z,98.50
2023-01-26T23:13:42.416Z,84.73
2023-01-26T23:16:10.424Z,95.78
2023-01-26T23:18:38.145Z,95.93
2023-01-26T23:21:06.843Z,83.40
2023-01-26T23:23:35.899Z,90.47
2023-01-26T23:26:03.612Z,89.85
2023-01-26T23:28:33.652Z,106.43
2023-01-26T23:31:01.555Z,105.53
2023-01-26T23:33:30.634Z,90.18
2023-01-26T23:35:58.370Z,81.95
2023-01-26T23:38:27.376Z,107.88
2023-01-26T23:40:56.379Z,88.50
2023-01-26T23:43:24.437Z,102.72
2023-01-26T23:45:52.308Z,86.32
2023-01-26T23:48:20.549Z,88.40
2023-01-26T23:50:48.116Z,94.22
2023-01-26T23:53:15.779Z,96.93
2023-01-26T23:55:44.359Z,94.00
2023-01-26T23:58:13.165Z,94.15
